createdAt,value
2022-12-23T00:01:19.646Z,6.20
2022-12-23T00:03:46.420Z,5.63
2022-12-23T00:06:15.750Z,6.22
2022-12-23T00:08:43.265Z,5.97
2022-12-23T00:11:18.924Z,6.80
2022-12-23T00:14:04.638Z,7.18
2022-12-23T00:16:31.411Z,7.53
2022-12-23T00:18:57.952Z,7.57
2022-12-23T00:21:24.471Z,7.43
2022-12-23T00:23:51.884Z,7.28
2022-12-23T00:26:24.617Z,7.07
2022-12-23T00:28:51.913Z,6.93
2022-12-23T00:31:19.969Z,7.05
2022-12-23T00:33:48.824Z,7.43
2022-12-23T00:36:24.602Z,6.45
2022-12-23T00:39:10.556Z,7.32
2022-12-23T00:41:56.224Z,6.53
2022-12-23T00:44:23.183Z,6.30
2022-12-23T00:46:49.947Z,5.78
2022-12-23T00:49:37.032Z,6.05
2022-12-23T00:52:05.312Z,5.47
2022-12-23T00:54:34.616Z,5.60
2022-12-23T00:57:01.718Z,4.97
2022-12-23T00:59:28.203Z,5.25
2022-12-23T01:02:13.417Z,5.22
2022-12-23T01:04:58.684Z,4.90
2022-12-23T01:07:26.010Z,4.82
2022-12-23T01:09:52.636Z,4.53
2022-12-23T01:12:19.741Z,4.20
2022-12-23T01:14:46.389Z,4.55
2022-12-23T01:17:13.226Z,4.05
2022-12-23T01:19:39.982Z,4.45
2022-12-23T01:22:06.530Z,4.03
2022-12-23T01:24:33.171Z,4.32
2022-12-23T01:27:00.350Z,4.10
2022-12-23T01:29:26.973Z,4.47
2022-12-23T01:31:53.626Z,4.07
2022-12-23T01:34:20.226Z,4.45
2022-12-23T01:36:46.798Z,4.43
2022-12-23T01:39:13.384Z,4.20
2022-12-23T01:41:58.340Z,4.63
2022-12-23T01:44:51.078Z,4.50
2022-12-23T01:47:33.911Z,4.28
2022-12-23T01:50:07.255Z,4.47
2022-12-23T01:52:38.513Z,4.03
2022-12-23T01:55:05.607Z,4.00
2022-12-23T01:57:32.531Z,4.50
2022-12-23T02:00:17.537Z,4.13
2022-12-23T02:03:03.174Z,3.92
2022-12-23T02:05:29.847Z,4.45
2022-12-23T02:08:15.595Z,4.32
2022-12-23T02:11:08.553Z,4.30
2022-12-23T02:16:17.459Z,3.40
2022-12-23T02:19:10.433Z,3.30
2022-12-23T02:24:42.197Z,4.00
2022-12-23T02:27:10.601Z,4.72
2022-12-23T02:32:41.653Z,5.15
2022-12-23T02:35:33.495Z,4.32
2022-12-23T02:38:10.934Z,4.53
2022-12-23T02:40:49.729Z,4.93
2022-12-23T02:43:25.576Z,4.13
2022-12-23T02:46:01.583Z,4.22
2022-12-23T02:48:52.975Z,4.20
2022-12-23T02:51:22.874Z,4.22
2022-12-23T02:53:54.432Z,3.90
2022-12-23T02:56:24.261Z,4.65
2022-12-23T02:59:13.939Z,4.10
2022-12-23T03:01:43.002Z,4.45
2022-12-23T03:04:09.741Z,4.28
2022-12-23T03:06:42.111Z,4.53
2022-12-23T03:09:09.059Z,4.45
2022-12-23T03:11:41.670Z,4.82
2022-12-23T03:14:26.513Z,4.75
2022-12-23T03:17:40.527Z,4.85
2022-12-23T03:20:19.510Z,4.45
2022-12-23T03:22:49.414Z,4.75
2022-12-23T03:25:31.092Z,4.90
2022-12-23T03:28:19.260Z,4.85
2022-12-23T03:30:51.430Z,4.80
2022-12-23T03:33:28.214Z,4.93
2022-12-23T03:36:07.351Z,5.28
2022-12-23T03:38:39.263Z,4.70
2022-12-23T03:41:10.349Z,5.40
2022-12-23T03:43:46.739Z,4.90
2022-12-23T03:46:23.381Z,5.10
2022-12-23T03:48:54.148Z,4.55
2022-12-23T03:52:01.636Z,5.13
2022-12-23T03:54:32.454Z,4.68
2022-12-23T03:57:03.565Z,5.00
2022-12-23T03:59:38.035Z,5.13
2022-12-23T04:02:33.615Z,4.70
2022-12-23T04:05:21.759Z,5.22
2022-12-23T04:07:48.213Z,4.93
2022-12-23T04:10:15.519Z,5.20
2022-12-23T04:12:42.365Z,4.90
2022-12-23T04:15:13.090Z,5.13
2022-12-23T04:17:40.329Z,4.75
2022-12-23T04:20:07.656Z,5.03
2022-12-23T04:22:34.207Z,4.75
2022-12-23T04:25:00.794Z,5.05
2022-12-23T04:27:27.321Z,5.03
2022-12-23T04:29:53.851Z,5.00
2022-12-23T04:32:20.311Z,4.72
2022-12-23T04:34:46.743Z,4.70
2022-12-23T04:37:13.307Z,4.78
2022-12-23T04:39:39.803Z,4.30
2022-12-23T04:42:06.333Z,4.07
2022-12-23T04:44:32.904Z,4.40
2022-12-23T04:46:59.452Z,5.03
2022-12-23T04:49:26.004Z,4.28
2022-12-23T04:51:52.519Z,4.45
2022-12-23T04:54:19.043Z,4.47
2022-12-23T04:56:45.544Z,4.68
2022-12-23T04:59:12.168Z,4.53
2022-12-23T05:01:38.935Z,4.40
2022-12-23T05:04:05.609Z,4.13
2022-12-23T05:06:32.132Z,4.75
2022-12-23T05:08:58.664Z,4.28
2022-12-23T05:11:25.187Z,4.75
2022-12-23T05:13:51.687Z,4.32
2022-12-23T05:16:18.520Z,4.38
2022-12-23T05:18:45.115Z,4.80
2022-12-23T05:21:11.873Z,4.75
2022-12-23T05:23:39.014Z,4.38
2022-12-23T05:26:05.571Z,5.15
2022-12-23T05:28:32.158Z,4.78
2022-12-23T05:31:04.552Z,4.57
2022-12-23T05:33:33.570Z,5.07
2022-12-23T05:36:00.686Z,4.50
2022-12-23T05:38:27.653Z,4.88
2022-12-23T05:40:54.222Z,4.68
2022-12-23T05:43:21.214Z,4.45
2022-12-23T05:45:48.121Z,4.32
2022-12-23T05:48:14.713Z,5.10
2022-12-23T05:50:44.219Z,4.70
2022-12-23T05:53:10.835Z,4.53
2022-12-23T05:55:37.437Z,4.65
2022-12-23T05:58:04.032Z,4.47
2022-12-23T06:00:30.604Z,4.75
2022-12-23T06:02:57.309Z,4.63
2022-12-23T06:05:24.017Z,4.38
2022-12-23T06:07:50.812Z,4.65
2022-12-23T06:10:17.709Z,4.15
2022-12-23T06:12:45.453Z,4.40
2022-12-23T06:15:12.584Z,4.20
2022-12-23T06:17:39.155Z,4.32
2022-12-23T06:20:06.518Z,3.88
2022-12-23T06:22:33.103Z,4.30
2022-12-23T06:24:59.643Z,3.92
2022-12-23T06:27:26.184Z,3.80
2022-12-23T06:29:52.722Z,3.42
2022-12-23T06:32:19.237Z,3.60
2022-12-23T06:34:46.720Z,3.80
2022-12-23T06:37:13.337Z,3.20
2022-12-23T06:39:39.841Z,3.80
2022-12-23T06:42:06.512Z,4.00
2022-12-23T06:44:33.080Z,3.53
2022-12-23T06:46:59.606Z,3.65
2022-12-23T06:49:26.393Z,3.47
2022-12-23T06:51:52.910Z,4.20
2022-12-23T06:54:19.503Z,3.78
2022-12-23T06:56:45.962Z,3.80
2022-12-23T06:59:12.566Z,4.00
2022-12-23T07:01:40.593Z,3.60
2022-12-23T07:04:07.573Z,4.00
2022-12-23T07:06:34.205Z,3.45
2022-12-23T07:09:01.103Z,4.15
2022-12-23T07:11:27.573Z,3.78
2022-12-23T07:13:54.116Z,4.18
2022-12-23T07:16:20.738Z,5.70
2022-12-23T07:18:47.321Z,5.93
2022-12-23T07:21:24.586Z,5.68
2022-12-23T07:23:55.069Z,6.72
2022-12-23T07:26:21.631Z,5.88
2022-12-23T07:28:48.997Z,6.85
2022-12-23T07:31:15.883Z,6.15
2022-12-23T07:33:42.665Z,6.03
2022-12-23T07:36:09.570Z,5.90
2022-12-23T07:38:36.113Z,6.00
2022-12-23T07:41:02.548Z,5.32
2022-12-23T07:43:29.064Z,5.07
2022-12-23T07:45:59.826Z,4.88
2022-12-23T07:48:27.462Z,5.07
2022-12-23T07:51:00.509Z,5.03
2022-12-23T07:53:27.268Z,4.82
2022-12-23T07:55:56.626Z,4.45
2022-12-23T07:58:24.003Z,4.53
2022-12-23T08:00:50.723Z,4.25
2022-12-23T08:03:17.468Z,4.65
2022-12-23T08:05:44.292Z,4.43
2022-12-23T08:08:10.924Z,4.53
2022-12-23T08:10:41.401Z,4.05
2022-12-23T08:13:11.035Z,4.75
2022-12-23T08:15:37.596Z,4.60
2022-12-23T08:18:04.271Z,5.45
2022-12-23T08:20:30.786Z,5.78
2022-12-23T08:22:57.273Z,5.22
2022-12-23T08:25:23.783Z,6.28
2022-12-23T08:27:51.335Z,5.55
2022-12-23T08:30:18.867Z,5.70
2022-12-23T08:32:45.427Z,5.72
2022-12-23T08:35:12.051Z,5.78
2022-12-23T08:37:38.663Z,6.13
2022-12-23T08:40:05.724Z,6.00
2022-12-23T08:42:32.255Z,5.80
2022-12-23T08:44:58.887Z,5.90
2022-12-23T08:47:25.336Z,5.47
2022-12-23T08:49:51.870Z,6.05
2022-12-23T08:52:18.399Z,6.00
2022-12-23T08:54:44.999Z,6.18
2022-12-23T08:57:11.529Z,6.32
2022-12-23T08:59:38.069Z,6.05
2022-12-23T09:02:04.718Z,6.90
2022-12-23T09:04:31.300Z,6.57
2022-12-23T09:06:57.858Z,6.47
2022-12-23T09:09:24.714Z,7.03
2022-12-23T09:11:51.216Z,7.25
2022-12-23T09:14:17.834Z,6.85
2022-12-23T09:16:44.354Z,6.68
2022-12-23T09:19:10.935Z,7.07
2022-12-23T09:21:37.564Z,7.70
2022-12-23T09:24:04.334Z,7.10
2022-12-23T09:26:31.656Z,6.72
2022-12-23T09:28:58.660Z,7.75
2022-12-23T09:31:29.239Z,7.35
2022-12-23T09:33:59.015Z,7.53
2022-12-23T09:36:25.679Z,7.88
2022-12-23T09:38:56.950Z,7.00
2022-12-23T09:41:48.922Z,7.35
2022-12-23T09:44:33.920Z,6.85
2022-12-23T09:47:05.697Z,6.95
2022-12-23T09:49:33.772Z,6.10
2022-12-23T09:52:03.980Z,7.18
2022-12-23T09:54:41.129Z,6.97
2022-12-23T09:57:32.628Z,7.38
2022-12-23T10:00:15.500Z,7.55
2022-12-23T10:03:00.779Z,8.20
2022-12-23T10:05:39.524Z,7.82
2022-12-23T10:08:27.978Z,8.05
2022-12-23T10:11:00.317Z,8.05
2022-12-23T10:13:41.033Z,6.95
2022-12-23T10:18:57.819Z,7.15
2022-12-23T10:21:47.690Z,6.88
2022-12-23T10:24:23.684Z,6.22
2022-12-23T10:26:59.983Z,6.43
2022-12-23T10:29:30.840Z,6.65
2022-12-23T10:32:16.037Z,6.85
2022-12-23T10:34:56.368Z,7.47
2022-12-23T10:37:27.385Z,7.80
2022-12-23T10:40:22.685Z,6.90
2022-12-23T10:43:20.821Z,6.43
2022-12-23T10:45:51.522Z,6.40
2022-12-23T10:48:20.959Z,6.60
2022-12-23T10:50:58.444Z,6.85
2022-12-23T10:53:54.053Z,6.70
2022-12-23T10:56:21.097Z,5.82
2022-12-23T10:58:52.734Z,7.53
2022-12-23T11:01:26.605Z,8.02
2022-12-23T11:06:36.856Z,7.82
2022-12-23T11:09:05.658Z,9.27
2022-12-23T11:11:54.164Z,6.78
2022-12-23T11:14:35.839Z,7.65
2022-12-23T11:17:04.981Z,6.88
2022-12-23T11:21:59.758Z,8.65
2022-12-23T11:24:35.434Z,8.15
2022-12-23T11:27:07.833Z,7.78
2022-12-23T11:29:38.702Z,8.73
2022-12-23T11:32:26.508Z,9.40
2022-12-23T11:34:55.641Z,10.73
2022-12-23T11:37:42.120Z,14.70
2022-12-23T11:40:37.584Z,15.20
2022-12-23T11:43:12.832Z,14.48
2022-12-23T11:45:39.711Z,11.95
2022-12-23T11:48:25.996Z,9.68
2022-12-23T11:51:01.845Z,9.40
2022-12-23T11:53:28.945Z,10.70
2022-12-23T11:56:10.077Z,10.30
2022-12-23T11:58:45.651Z,10.93
2022-12-23T12:01:23.677Z,13.25
2022-12-23T12:03:55.732Z,11.10
2022-12-23T12:06:23.330Z,11.25
2022-12-23T12:08:52.625Z,10.88
2022-12-23T12:11:44.356Z,10.65
2022-12-23T12:14:30.988Z,12.25
2022-12-23T12:17:22.405Z,11.93
2022-12-23T12:20:00.777Z,18.17
2022-12-23T12:22:38.003Z,13.10
2022-12-23T12:25:20.635Z,12.20
2022-12-23T12:27:57.907Z,11.20
2022-12-23T12:30:32.663Z,16.15
2022-12-23T12:33:05.323Z,11.50
2022-12-23T12:35:49.384Z,10.65
2022-12-23T12:38:25.545Z,12.13
2022-12-23T12:41:03.390Z,10.00
2022-12-23T12:43:48.565Z,9.65
2022-12-23T12:46:31.290Z,10.45
2022-12-23T12:49:16.322Z,10.10
2022-12-23T12:51:42.767Z,9.38
2022-12-23T12:54:35.314Z,9.95
2022-12-23T12:57:02.384Z,9.57
2022-12-23T12:59:33.930Z,9.02
2022-12-23T13:02:28.441Z,8.68
2022-12-23T13:05:20.497Z,10.38
2022-12-23T13:08:11.549Z,8.95
2022-12-23T13:10:59.687Z,9.07
2022-12-23T13:13:45.139Z,9.50
2022-12-23T13:16:33.702Z,8.88
2022-12-23T13:19:12.263Z,8.77
2022-12-23T13:21:49.971Z,9.68
2022-12-23T13:24:32.676Z,9.27
2022-12-23T13:27:05.047Z,11.38
2022-12-23T13:29:40.672Z,11.02
2022-12-23T13:32:25.998Z,9.52
2022-12-23T13:35:38.523Z,9.32
2022-12-23T13:38:42.214Z,9.07
2022-12-23T13:41:40.001Z,9.00
2022-12-23T13:44:10.700Z,8.43
2022-12-23T13:47:06.422Z,8.75
2022-12-23T13:50:23.758Z,8.00
2022-12-23T13:53:01.775Z,8.57
2022-12-23T13:55:58.795Z,7.70
2022-12-23T13:58:31.179Z,7.40
2022-12-23T14:01:18.919Z,8.35
2022-12-23T14:03:49.625Z,8.40
2022-12-23T14:06:25.235Z,8.70
2022-12-23T14:08:53.521Z,8.27
2022-12-23T14:11:28.865Z,9.18
2022-12-23T14:14:02.594Z,9.32
2022-12-23T14:17:02.715Z,9.52
2022-12-23T14:19:57.335Z,9.55
2022-12-23T14:22:36.155Z,10.57
2022-12-23T14:25:41.168Z,9.93
2022-12-23T14:30:53.317Z,8.25
2022-12-23T14:33:26.377Z,8.18
2022-12-23T14:35:54.754Z,8.65
2022-12-23T14:38:24.636Z,8.35
2022-12-23T14:41:23.363Z,8.10
2022-12-23T14:43:56.161Z,7.60
2022-12-23T14:46:35.224Z,8.00
2022-12-23T14:49:29.836Z,7.63
2022-12-23T14:51:50.973Z,8.02
2022-12-23T14:54:36.664Z,7.32
2022-12-23T14:57:13.742Z,7.50
2022-12-23T15:00:01.426Z,7.43
2022-12-23T15:02:35.984Z,7.40
2022-12-23T15:05:03.942Z,7.50
2022-12-23T15:07:43.487Z,7.35
2022-12-23T15:10:22.307Z,7.43
2022-12-23T15:13:02.859Z,6.90
2022-12-23T15:15:30.992Z,7.35
2022-12-23T15:18:05.182Z,7.90
2022-12-23T15:20:31.912Z,7.10
2022-12-23T15:23:02.288Z,7.30
2022-12-23T15:25:33.553Z,7.45
2022-12-23T15:28:03.800Z,7.97
2022-12-23T15:30:47.745Z,8.00
2022-12-23T15:34:00.562Z,8.20
2022-12-23T15:36:09.879Z,7.10
2022-12-23T15:38:38.754Z,6.68
2022-12-23T15:41:14.408Z,6.93
2022-12-23T15:43:42.208Z,6.65
2022-12-23T15:46:28.980Z,7.00
2022-12-23T15:48:56.678Z,22.30
2022-12-23T15:54:29.666Z,6.95
2022-12-23T15:56:58.764Z,6.68
2022-12-23T15:59:38.326Z,7.45
2022-12-23T16:05:08.140Z,6.93
2022-12-23T16:07:38.140Z,7.25
2022-12-23T16:10:17.158Z,8.00
2022-12-23T16:12:44.394Z,8.20
2022-12-23T16:15:20.176Z,21.23
2022-12-23T16:17:46.753Z,11.65
2022-12-23T16:20:24.123Z,11.48
2022-12-23T16:22:54.233Z,9.35
2022-12-23T16:25:31.199Z,9.20
2022-12-23T16:28:13.345Z,8.05
2022-12-23T16:30:43.384Z,7.88
2022-12-23T16:33:37.443Z,7.57
2022-12-23T16:36:25.311Z,7.80
2022-12-23T16:38:53.297Z,7.85
2022-12-23T16:41:20.534Z,7.03
2022-12-23T16:43:52.022Z,7.28
2022-12-23T16:46:21.223Z,6.53
2022-12-23T16:49:01.869Z,8.25
2022-12-23T16:51:33.789Z,6.35
2022-12-23T16:54:01.205Z,7.03
2022-12-23T16:56:37.987Z,6.15
2022-12-23T16:59:05.016Z,6.28
2022-12-23T17:01:44.851Z,6.00
2022-12-23T17:04:11.717Z,10.43
2022-12-23T17:06:38.795Z,9.23
2022-12-23T17:09:07.823Z,8.02
2022-12-23T17:11:39.288Z,6.97
2022-12-23T17:14:13.605Z,6.72
2022-12-23T17:16:42.126Z,10.57
2022-12-23T17:19:08.820Z,9.70
2022-12-23T17:21:39.182Z,7.80
2022-12-23T17:24:24.701Z,8.25
2022-12-23T17:26:52.571Z,7.40
2022-12-23T17:29:19.719Z,8.18
2022-12-23T17:31:48.073Z,11.77
2022-12-23T17:36:49.238Z,12.63
2022-12-23T17:39:16.425Z,9.93
2022-12-23T17:41:43.415Z,9.68
2022-12-23T17:44:14.071Z,8.68
2022-12-23T17:46:41.027Z,8.65
2022-12-23T17:49:08.389Z,9.77
2022-12-23T17:51:34.922Z,9.15
2022-12-23T17:54:02.231Z,9.95
2022-12-23T17:56:28.910Z,9.85
2022-12-23T17:58:55.491Z,9.38
2022-12-23T18:01:32.377Z,9.30
2022-12-23T18:04:00.000Z,9.55
2022-12-23T18:06:28.630Z,9.05
2022-12-23T18:08:57.075Z,9.32
2022-12-23T18:14:02.364Z,8.32
2022-12-23T18:16:30.084Z,8.93
2022-12-23T18:18:57.067Z,8.88
2022-12-23T18:21:29.017Z,7.75
2022-12-23T18:23:58.743Z,8.27
2022-12-23T18:26:25.829Z,8.55
2022-12-23T18:28:54.365Z,7.43
2022-12-23T18:31:24.349Z,7.25
2022-12-23T18:33:51.415Z,6.65
2022-12-23T18:36:22.558Z,7.63
2022-12-23T18:38:49.349Z,7.47
2022-12-23T18:41:15.992Z,7.43
2022-12-23T18:43:42.551Z,7.13
2022-12-23T18:46:09.047Z,6.68
2022-12-23T18:48:35.592Z,6.95
2022-12-23T18:51:02.713Z,5.50
2022-12-23T18:53:29.172Z,6.90
2022-12-23T18:55:55.898Z,7.60
2022-12-23T18:58:23.094Z,6.25
2022-12-23T19:00:50.808Z,4.60
2022-12-23T19:03:24.818Z,5.82
2022-12-23T19:05:52.946Z,5.25
2022-12-23T19:08:26.130Z,5.18
2022-12-23T19:10:53.877Z,6.15
2022-12-23T19:13:20.632Z,4.90
2022-12-23T19:15:47.277Z,4.53
2022-12-23T19:18:19.496Z,5.65
2022-12-23T19:20:47.228Z,4.82
2022-12-23T19:23:14.498Z,4.88
2022-12-23T19:25:43.495Z,4.45
2022-12-23T19:28:12.389Z,5.32
2022-12-23T19:30:42.574Z,5.07
2022-12-23T19:33:09.269Z,6.10
2022-12-23T19:35:35.985Z,4.95
2022-12-23T19:38:02.515Z,5.03
2022-12-23T19:40:29.554Z,4.15
2022-12-23T19:42:56.405Z,4.45
2022-12-23T19:45:23.004Z,4.88
2022-12-23T19:47:49.459Z,4.32
2022-12-23T19:50:15.977Z,4.47
2022-12-23T19:52:42.524Z,4.50
2022-12-23T19:55:10.189Z,5.13
2022-12-23T19:57:36.964Z,5.65
2022-12-23T20:00:04.970Z,4.50
2022-12-23T20:02:31.557Z,4.53
2022-12-23T20:04:58.183Z,4.43
2022-12-23T20:07:24.685Z,4.40
2022-12-23T20:09:51.578Z,5.13
2022-12-23T20:12:18.143Z,4.32
2022-12-23T20:14:44.697Z,5.03
2022-12-23T20:17:11.230Z,4.45
2022-12-23T20:19:43.849Z,4.78
2022-12-23T20:22:12.536Z,4.57
2022-12-23T20:24:39.110Z,4.93
2022-12-23T20:27:10.964Z,4.93
2022-12-23T20:29:38.473Z,5.22
2022-12-23T20:32:05.235Z,5.55
2022-12-23T20:34:36.687Z,4.88
2022-12-23T20:37:05.554Z,5.40
2022-12-23T20:39:32.056Z,5.07
2022-12-23T20:41:58.541Z,5.32
2022-12-23T20:44:34.569Z,7.25
2022-12-23T20:47:02.614Z,5.40
2022-12-23T20:49:29.486Z,5.30
2022-12-23T20:51:56.029Z,4.63
2022-12-23T20:54:29.681Z,5.80
2022-12-23T20:56:58.706Z,3.92
2022-12-23T20:59:25.331Z,4.00
2022-12-23T21:01:52.105Z,4.70
2022-12-23T21:04:18.959Z,3.80
2022-12-23T21:06:45.720Z,3.60
2022-12-23T21:09:14.542Z,3.47
2022-12-23T21:11:44.024Z,3.33
2022-12-23T21:14:11.170Z,2.90
2022-12-23T21:16:38.755Z,2.55
2022-12-23T21:19:07.492Z,3.30
2022-12-23T21:21:34.151Z,2.67
2022-12-23T21:24:04.587Z,3.05
2022-12-23T21:26:32.935Z,2.90
2022-12-23T21:29:00.935Z,2.42
2022-12-23T21:31:29.720Z,2.92
2022-12-23T21:33:57.144Z,2.75
2022-12-23T21:36:26.519Z,2.47
2022-12-23T21:38:53.486Z,2.42
2022-12-23T21:41:22.823Z,2.53
2022-12-23T21:43:49.980Z,2.38
2022-12-23T21:46:18.754Z,2.45
2022-12-23T21:48:45.874Z,3.15
2022-12-23T21:51:24.642Z,2.28
2022-12-23T21:53:53.185Z,2.30
2022-12-23T21:56:25.701Z,2.67
2022-12-23T21:59:08.459Z,2.60
2022-12-23T22:01:35.345Z,2.30
2022-12-23T22:04:02.298Z,2.15
2022-12-23T22:06:32.099Z,2.42
2022-12-23T22:08:59.123Z,1.67
2022-12-23T22:11:28.602Z,2.25
2022-12-23T22:13:59.532Z,2.10
2022-12-23T22:16:28.162Z,1.90
2022-12-23T22:18:55.972Z,1.88
2022-12-23T22:21:24.890Z,2.20
2022-12-23T22:23:52.710Z,2.70
2022-12-23T22:26:25.427Z,2.20
2022-12-23T22:28:55.514Z,2.70
2022-12-23T22:31:36.871Z,2.58
2022-12-23T22:34:04.252Z,2.72
2022-12-23T22:36:30.936Z,1.90
2022-12-23T22:38:59.331Z,2.47
2022-12-23T22:43:55.496Z,1.95
2022-12-23T22:46:22.766Z,2.30
2022-12-23T22:48:49.535Z,2.05
2022-12-23T22:51:24.694Z,1.98
2022-12-23T22:53:51.755Z,2.28
2022-12-23T22:56:20.134Z,1.92
2022-12-23T23:01:34.099Z,2.05
2022-12-23T23:04:02.703Z,2.00
2022-12-23T23:06:37.548Z,2.10
2022-12-23T23:09:06.157Z,1.90
2022-12-23T23:11:32.687Z,2.10
2022-12-23T23:13:59.741Z,2.50
2022-12-23T23:16:26.599Z,2.15
2022-12-23T23:18:53.995Z,2.50
2022-12-23T23:21:21.474Z,2.63
2022-12-23T23:23:49.092Z,2.20
2022-12-23T23:26:16.513Z,2.28
2022-12-23T23:28:43.732Z,2.20
2022-12-23T23:33:57.987Z,2.45
2022-12-23T23:36:25.060Z,2.03
2022-12-23T23:38:51.685Z,2.47
2022-12-23T23:41:22.899Z,1.95
2022-12-23T23:43:50.622Z,2.80
2022-12-23T23:46:17.268Z,2.45
2022-12-23T23:48:43.952Z,2.13
2022-12-23T23:51:10.453Z,2.08
2022-12-23T23:53:37.024Z,2.00
2022-12-23T23:56:06.003Z,1.90
2022-12-23T23:58:33.613Z,2.22
